createdAt,value
2022-09-22T00:00:55.875Z,99325.78
2022-09-22T00:06:20.839Z,99331.84
2022-09-22T00:11:45.067Z,99322.59
2022-09-22T00:17:07.108Z,99317.66
2022-09-22T00:22:29.897Z,99312.16
2022-09-22T00:27:54.406Z,99308.41
2022-09-22T00:33:16.168Z,99308.47
2022-09-22T00:38:39.394Z,99304.31
2022-09-22T00:44:25.893Z,99296.97
2022-09-22T00:49:50.340Z,99294.06
2022-09-22T00:55:18.669Z,99281.16
2022-09-22T01:00:40.710Z,99287.84
2022-09-22T01:06:06.368Z,99288.84
2022-09-22T01:11:29.830Z,99290.56
2022-09-22T01:17:13.140Z,99296.75
2022-09-22T01:23:06.745Z,99299.94
2022-09-22T01:29:07.076Z,99299.59
2022-09-22T01:34:36.507Z,99291.28
2022-09-22T01:40:04.301Z,99284.97
2022-09-22T01:45:32.304Z,99276.38
2022-09-22T01:51:11.991Z,99288.25
2022-09-22T01:56:36.669Z,99288.28
2022-09-22T02:02:06.140Z,99288.75
2022-09-22T02:07:34.256Z,99284.31
2022-09-22T02:12:56.130Z,99282.09
2022-09-22T02:18:26.606Z,99284.19
2022-09-22T02:23:49.440Z,99278.53
2022-09-22T02:29:12.973Z,99270.22
2022-09-22T02:34:35.050Z,99275.59
2022-09-22T02:40:05.484Z,99268.56
2022-09-22T02:45:53.577Z,99267.94
2022-09-22T02:51:16.239Z,99263.63
2022-09-22T02:56:38.048Z,99266.69
2022-09-22T03:01:59.961Z,99269.59
2022-09-22T03:07:21.807Z,99265.69
2022-09-22T03:13:08.969Z,99272.53
2022-09-22T03:18:25.624Z,99266.97
2022-09-22T03:23:47.367Z,99264.66
2022-09-22T03:29:09.329Z,99258.16
2022-09-22T03:34:31.053Z,99254.50
2022-09-22T03:39:53.000Z,99256.09
2022-09-22T03:45:15.518Z,99255.09
2022-09-22T03:50:37.218Z,99245.41
2022-09-22T03:56:12.111Z,99247.50
2022-09-22T04:01:34.138Z,99256.22
2022-09-22T04:06:56.207Z,99247.75
2022-09-22T04:12:17.915Z,99245.00
2022-09-22T04:17:40.007Z,99239.69
2022-09-22T04:23:01.962Z,99238.00
2022-09-22T04:28:23.670Z,99242.13
2022-09-22T04:33:45.762Z,99244.69
2022-09-22T04:39:07.477Z,99252.66
2022-09-22T04:44:32.196Z,99251.63
2022-09-22T04:49:56.681Z,99242.78
2022-09-22T04:55:20.965Z,99242.56
2022-09-22T05:00:42.966Z,99241.47
2022-09-22T05:06:06.225Z,99246.94
2022-09-22T05:11:28.322Z,99253.81
2022-09-22T05:16:50.040Z,99256.28
2022-09-22T05:22:12.213Z,99264.19
2022-09-22T05:27:34.086Z,99259.03
2022-09-22T05:32:55.907Z,99270.19
2022-09-22T05:38:17.624Z,99269.28
2022-09-22T05:43:39.486Z,99271.72
2022-09-22T05:49:01.297Z,99272.72
2022-09-22T05:54:24.464Z,99265.22
2022-09-22T05:59:46.231Z,99273.00
2022-09-22T06:05:08.360Z,99276.03
2022-09-22T06:10:35.574Z,99269.72
2022-09-22T06:15:57.290Z,99275.56
2022-09-22T06:21:19.019Z,99272.63
2022-09-22T06:26:40.745Z,99276.19
2022-09-22T06:32:02.501Z,99273.59
2022-09-22T06:37:24.270Z,99272.59
2022-09-22T06:42:46.346Z,99276.44
2022-09-22T06:48:10.911Z,99261.59
2022-09-22T06:53:32.617Z,99267.44
2022-09-22T06:59:09.945Z,99265.38
2022-09-22T07:04:32.389Z,99266.81
2022-09-22T07:09:55.012Z,99261.31
2022-09-22T07:15:16.769Z,99253.22
2022-09-22T07:20:38.474Z,99247.03
2022-09-22T07:26:03.789Z,99250.22
2022-09-22T07:31:29.061Z,99256.69
2022-09-22T07:36:54.427Z,99253.28
2022-09-22T07:42:16.964Z,99251.06
2022-09-22T07:47:57.285Z,99262.75
2022-09-22T07:53:19.003Z,99257.97
2022-09-22T07:58:49.895Z,99252.66
2022-09-22T08:04:13.935Z,99253.44
2022-09-22T08:09:35.985Z,99248.44
2022-09-22T08:14:58.026Z,99237.25
2022-09-22T08:20:20.133Z,99232.31
2022-09-22T08:25:42.997Z,99230.88
2022-09-22T08:31:12.832Z,99222.69
2022-09-22T08:36:34.607Z,99226.50
2022-09-22T08:42:08.449Z,99219.59
2022-09-22T08:47:59.961Z,99220.34
2022-09-22T08:53:23.348Z,99216.75
2022-09-22T08:59:02.955Z,99222.28
2022-09-22T09:04:52.930Z,99211.84
2022-09-22T09:10:26.848Z,99219.44
2022-09-22T09:16:01.764Z,99221.03
2022-09-22T09:21:25.417Z,99214.72
2022-09-22T09:26:48.363Z,99206.50
2022-09-22T09:32:25.183Z,99204.00
2022-09-22T09:37:48.719Z,99201.59
2022-09-22T09:43:10.725Z,99192.69
2022-09-22T09:48:43.412Z,99190.53
2022-09-22T09:54:13.159Z,99185.53
2022-09-22T09:59:59.639Z,99197.44
2022-09-22T10:05:26.537Z,99180.34
2022-09-22T10:10:48.876Z,99176.00
2022-09-22T10:16:28.826Z,99177.09
2022-09-22T10:21:50.724Z,99172.97
2022-09-22T10:27:24.220Z,99159.50
2022-09-22T10:33:03.565Z,99166.56
2022-09-22T10:38:29.382Z,99150.59
2022-09-22T10:44:27.329Z,99147.72
2022-09-22T10:50:03.046Z,99147.38
2022-09-22T10:55:33.650Z,99125.59
2022-09-22T11:01:11.480Z,99130.34
2022-09-22T11:07:06.875Z,99135.69
2022-09-22T11:12:50.213Z,99125.78
2022-09-22T11:18:39.545Z,99125.50
2022-09-22T11:24:05.749Z,99117.22
2022-09-22T11:30:11.266Z,99113.91
2022-09-22T11:35:48.330Z,99101.00
2022-09-22T11:41:25.900Z,99099.44
2022-09-22T11:46:56.591Z,99088.53
2022-09-22T11:52:26.767Z,99080.78
2022-09-22T11:57:55.649Z,99069.97
2022-09-22T12:03:27.311Z,99069.69
2022-09-22T12:14:22.431Z,99070.75
2022-09-22T12:20:12.734Z,99060.81
2022-09-22T12:25:54.441Z,99048.09
2022-09-22T12:31:18.783Z,99044.81
2022-09-22T12:36:42.043Z,99037.41
2022-09-22T12:42:15.584Z,99031.81
2022-09-22T12:47:40.901Z,99041.59
2022-09-22T12:53:12.318Z,99032.72
2022-09-22T12:58:34.051Z,99033.28
2022-09-22T13:04:11.766Z,99027.91
2022-09-22T13:09:33.572Z,99028.31
2022-09-22T13:15:07.494Z,99017.53
2022-09-22T13:20:34.329Z,99013.13
2022-09-22T13:26:08.259Z,99007.75
2022-09-22T13:31:46.230Z,99008.34
2022-09-22T13:37:16.681Z,99004.28
2022-09-22T13:42:42.678Z,98996.03
2022-09-22T13:48:11.539Z,98996.22
2022-09-22T13:53:33.411Z,98995.22
2022-09-22T13:58:57.429Z,98981.84
2022-09-22T14:04:27.670Z,98983.97
2022-09-22T14:09:50.627Z,98971.53
2022-09-22T14:15:37.259Z,98965.16
2022-09-22T14:20:59.121Z,98970.47
2022-09-22T14:26:35.634Z,98973.59
2022-09-22T14:32:13.028Z,98953.94
2022-09-22T14:37:41.632Z,98966.31
2022-09-22T14:43:09.693Z,98958.16
2022-09-22T14:48:33.778Z,98944.72
2022-09-22T14:54:02.694Z,98941.34
2022-09-22T14:59:43.280Z,98949.06
2022-09-22T15:05:05.452Z,98942.56
2022-09-22T15:10:31.784Z,98941.00
2022-09-22T15:15:53.806Z,98937.63
2022-09-22T15:21:15.742Z,98926.47
2022-09-22T15:26:38.589Z,98921.19
2022-09-22T15:32:03.769Z,98917.72
2022-09-22T15:37:25.581Z,98915.31
2022-09-22T15:43:11.740Z,98920.69
2022-09-22T15:48:37.029Z,98917.94
2022-09-22T15:53:58.859Z,98919.38
2022-09-22T15:59:26.790Z,98911.19
2022-09-22T16:04:48.870Z,98912.28
2022-09-22T16:10:20.871Z,98913.34
2022-09-22T16:15:42.646Z,98918.13
2022-09-22T16:21:18.517Z,98916.31
2022-09-22T16:26:40.465Z,98906.22
2022-09-22T16:32:02.231Z,98910.31
2022-09-22T16:37:23.985Z,98910.28
2022-09-22T16:42:46.033Z,98916.00
2022-09-22T16:48:07.838Z,98914.66
2022-09-22T16:53:29.584Z,98922.28
2022-09-22T16:58:52.074Z,98918.53
2022-09-22T17:04:16.353Z,98923.16
2022-09-22T17:09:38.066Z,98923.00
2022-09-22T17:14:59.751Z,98919.47
2022-09-22T17:20:21.979Z,98927.31
2022-09-22T17:25:46.708Z,98919.66
2022-09-22T17:31:08.507Z,98928.44
2022-09-22T17:36:30.657Z,98924.97
2022-09-22T17:41:53.163Z,98923.72
2022-09-22T17:47:33.553Z,98920.25
2022-09-22T17:53:21.453Z,98934.22
2022-09-22T17:58:43.321Z,98940.25
2022-09-22T18:04:05.143Z,98942.88
2022-09-22T18:09:27.006Z,98946.66
2022-09-22T18:14:52.157Z,98940.44
2022-09-22T18:20:20.727Z,98942.00
2022-09-22T18:25:42.434Z,98940.00
2022-09-22T18:31:04.454Z,98948.94
2022-09-22T18:36:26.177Z,98946.78
2022-09-22T18:41:48.200Z,98949.31
2022-09-22T18:47:14.336Z,98952.84
2022-09-22T18:52:37.208Z,98956.22
2022-09-22T18:57:58.918Z,98964.13
2022-09-22T19:03:20.652Z,98971.34
2022-09-22T19:08:42.693Z,98961.69
2022-09-22T19:14:04.662Z,98965.25
2022-09-22T19:19:29.193Z,98962.16
2022-09-22T19:24:53.463Z,98965.22
2022-09-22T19:30:16.958Z,98966.16
2022-09-22T19:35:41.256Z,98968.69
2022-09-22T19:41:02.992Z,98963.13
2022-09-22T19:46:24.809Z,98969.81
2022-09-22T19:51:46.553Z,98968.91
2022-09-22T19:57:08.258Z,98965.94
2022-09-22T20:02:33.039Z,98973.09
2022-09-22T20:07:55.968Z,98969.81
2022-09-22T20:13:36.515Z,98968.22
2022-09-22T20:18:58.232Z,98968.78
2022-09-22T20:24:22.132Z,98963.06
2022-09-22T20:29:43.946Z,98970.56
2022-09-22T20:35:06.096Z,98955.13
2022-09-22T20:40:29.011Z,98957.91
2022-09-22T20:45:50.851Z,98952.94
2022-09-22T20:51:13.025Z,98958.00
2022-09-22T20:56:38.317Z,98962.94
2022-09-22T21:02:02.491Z,98955.06
2022-09-22T21:07:24.471Z,98961.81
2022-09-22T21:12:46.187Z,98966.78
2022-09-22T21:18:07.891Z,98965.53
2022-09-22T21:23:30.033Z,98959.53
2022-09-22T21:28:52.515Z,98962.31
2022-09-22T21:34:14.236Z,98959.38
2022-09-22T21:39:35.944Z,98956.06
2022-09-22T21:44:57.701Z,98952.81
2022-09-22T21:50:19.615Z,98950.09
2022-09-22T21:55:41.401Z,98952.84
2022-09-22T22:01:08.406Z,98944.75
2022-09-22T22:06:34.351Z,98934.78
2022-09-22T22:11:58.823Z,98937.09
2022-09-22T22:17:20.510Z,98935.38
2022-09-22T22:22:42.188Z,98919.38
2022-09-22T22:28:03.893Z,98931.91
2022-09-22T22:33:25.604Z,98922.97
2022-09-22T22:38:47.333Z,98925.78
2022-09-22T22:44:09.059Z,98927.06
2022-09-22T22:49:31.268Z,98919.44
2022-09-22T22:54:54.026Z,98911.66
2022-09-22T23:00:15.830Z,98905.28
2022-09-22T23:05:43.076Z,98909.66
2022-09-22T23:11:17.856Z,98904.59
2022-09-22T23:16:43.138Z,98899.03
2022-09-22T23:22:05.639Z,98892.97
2022-09-22T23:27:28.339Z,98891.94
2022-09-22T23:32:50.115Z,98893.19
2022-09-22T23:38:17.274Z,98890.16
2022-09-22T23:43:39.689Z,98887.38
2022-09-22T23:49:02.218Z,98892.75
2022-09-22T23:54:23.962Z,98891.59
2022-09-22T23:59:45.646Z,98879.41
